createdAt,value
2023-02-19T00:01:53.732Z,16.55
2023-02-19T00:04:59.720Z,17.15
2023-02-19T00:08:02.351Z,17.95
2023-02-19T00:11:08.263Z,18.63
2023-02-19T00:14:14.821Z,18.67
2023-02-19T00:17:20.329Z,19.38
2023-02-19T00:20:22.905Z,17.65
2023-02-19T00:23:28.427Z,17.92
2023-02-19T00:26:31.485Z,18.87
2023-02-19T00:29:37.048Z,17.47
2023-02-19T00:32:39.705Z,18.48
2023-02-19T00:35:46.591Z,19.90
2023-02-19T00:38:49.681Z,19.70
2023-02-19T00:41:55.110Z,19.37
2023-02-19T00:44:58.219Z,19.13
2023-02-19T00:48:00.828Z,18.25
2023-02-19T00:51:05.929Z,19.10
2023-02-19T00:54:08.476Z,18.08
2023-02-19T00:57:10.948Z,16.37
2023-02-19T01:00:13.970Z,16.00
2023-02-19T01:03:16.678Z,16.27
2023-02-19T01:06:21.245Z,15.35
2023-02-19T01:09:23.804Z,15.82
2023-02-19T01:12:28.235Z,16.07
2023-02-19T01:15:33.273Z,16.10
2023-02-19T01:18:35.912Z,13.82
2023-02-19T01:21:40.538Z,15.25
2023-02-19T01:24:43.058Z,17.27
2023-02-19T01:27:45.758Z,16.83
2023-02-19T01:30:48.281Z,16.83
2023-02-19T01:33:53.522Z,16.60
2023-02-19T01:36:56.141Z,17.48
2023-02-19T01:39:58.732Z,18.85
2023-02-19T01:43:01.538Z,20.30
2023-02-19T01:46:04.273Z,20.33
2023-02-19T01:49:23.564Z,21.73
2023-02-19T01:52:31.884Z,20.73
2023-02-19T01:55:35.348Z,20.05
2023-02-19T01:58:38.343Z,20.73
2023-02-19T02:01:41.278Z,19.37
2023-02-19T02:04:43.984Z,18.90
2023-02-19T02:08:04.812Z,20.13
2023-02-19T02:11:07.521Z,19.10
2023-02-19T02:14:10.390Z,19.43
2023-02-19T02:17:24.633Z,18.80
2023-02-19T02:20:54.472Z,18.55
2023-02-19T02:24:21.344Z,19.27
2023-02-19T02:27:59.038Z,18.30
2023-02-19T02:31:25.742Z,18.13
2023-02-19T02:34:34.940Z,18.00
2023-02-19T02:37:42.693Z,21.42
2023-02-19T02:40:45.732Z,18.60
2023-02-19T02:43:50.618Z,19.25
2023-02-19T02:46:53.519Z,18.07
2023-02-19T02:50:07.038Z,17.57
2023-02-19T02:53:37.556Z,17.63
2023-02-19T02:56:50.540Z,17.90
2023-02-19T02:59:53.347Z,15.00
2023-02-19T03:02:57.997Z,16.60
2023-02-19T03:06:04.257Z,17.97
2023-02-19T03:09:16.237Z,17.35
2023-02-19T03:12:40.324Z,17.80
2023-02-19T03:16:06.428Z,17.88
2023-02-19T03:19:19.110Z,18.63
2023-02-19T03:22:29.894Z,19.47
2023-02-19T03:25:55.224Z,18.77
2023-02-19T03:29:23.653Z,17.55
2023-02-19T03:32:36.307Z,18.33
2023-02-19T03:35:49.602Z,17.27
2023-02-19T03:39:07.384Z,18.00
2023-02-19T03:42:11.217Z,17.52
2023-02-19T03:45:24.914Z,18.88
2023-02-19T03:48:37.858Z,18.10
2023-02-19T03:51:51.582Z,17.80
2023-02-19T03:55:18.599Z,17.53
2023-02-19T03:58:30.619Z,18.70
2023-02-19T04:01:36.206Z,17.92
2023-02-19T04:04:49.982Z,18.63
2023-02-19T04:08:06.359Z,16.93
2023-02-19T04:11:17.064Z,17.73
2023-02-19T04:15:00.856Z,16.48
2023-02-19T04:18:10.789Z,16.90
2023-02-19T04:21:13.622Z,16.90
2023-02-19T04:24:26.610Z,17.13
2023-02-19T04:27:29.240Z,16.47
2023-02-19T04:30:34.850Z,17.35
2023-02-19T04:33:40.961Z,16.85
2023-02-19T04:36:43.431Z,15.55
2023-02-19T04:39:49.252Z,17.43
2023-02-19T04:42:51.813Z,16.27
2023-02-19T04:46:01.915Z,17.60
2023-02-19T04:49:08.348Z,16.50
2023-02-19T04:52:13.549Z,15.75
2023-02-19T04:55:16.160Z,16.23
2023-02-19T04:58:18.932Z,17.20
2023-02-19T05:01:21.564Z,17.92
2023-02-19T05:04:26.843Z,16.58
2023-02-19T05:07:29.417Z,16.88
2023-02-19T05:10:37.309Z,15.33
2023-02-19T05:13:40.409Z,16.03
2023-02-19T05:16:43.170Z,17.10
2023-02-19T05:19:45.695Z,15.73
2023-02-19T05:22:51.028Z,16.00
2023-02-19T05:25:54.230Z,15.83
2023-02-19T05:29:00.482Z,17.97
2023-02-19T05:32:06.450Z,16.10
2023-02-19T05:35:10.426Z,16.27
2023-02-19T05:38:13.093Z,15.85
2023-02-19T05:41:18.371Z,16.70
2023-02-19T05:44:21.160Z,16.07
2023-02-19T05:47:23.686Z,15.07
2023-02-19T05:50:28.729Z,14.45
2023-02-19T05:53:33.465Z,14.25
2023-02-19T05:56:46.420Z,14.63
2023-02-19T05:59:48.992Z,15.33
2023-02-19T06:02:53.828Z,15.32
2023-02-19T06:05:59.636Z,14.73
2023-02-19T06:09:02.278Z,17.17
2023-02-19T06:12:07.390Z,15.27
2023-02-19T06:15:09.972Z,16.03
2023-02-19T06:18:15.959Z,15.68
2023-02-19T06:21:19.042Z,16.08
2023-02-19T06:24:24.305Z,15.50
2023-02-19T06:27:29.619Z,17.33
2023-02-19T06:30:34.962Z,15.33
2023-02-19T06:33:40.652Z,20.13
2023-02-19T06:36:43.375Z,18.88
2023-02-19T06:39:45.924Z,16.48
2023-02-19T06:42:51.385Z,18.13
2023-02-19T06:45:56.147Z,16.47
2023-02-19T06:48:59.704Z,16.85
2023-02-19T06:52:04.716Z,16.13
2023-02-19T06:55:10.841Z,16.17
2023-02-19T06:58:13.437Z,16.27
2023-02-19T07:01:16.160Z,16.53
2023-02-19T07:04:18.907Z,17.05
2023-02-19T07:07:21.554Z,16.58
2023-02-19T07:10:29.286Z,16.08
2023-02-19T07:13:31.908Z,16.13
2023-02-19T07:16:38.973Z,17.30
2023-02-19T07:19:41.628Z,17.02
2023-02-19T07:22:46.754Z,18.10
2023-02-19T07:25:49.278Z,16.90
2023-02-19T07:28:54.756Z,18.90
2023-02-19T07:31:57.392Z,17.37
2023-02-19T07:35:04.005Z,20.35
2023-02-19T07:38:06.595Z,18.30
2023-02-19T07:41:09.451Z,20.83
2023-02-19T07:44:16.547Z,18.60
2023-02-19T07:47:22.240Z,20.73
2023-02-19T07:50:24.766Z,18.38
2023-02-19T07:53:27.727Z,20.95
2023-02-19T07:56:36.298Z,24.48
2023-02-19T07:59:41.922Z,23.33
2023-02-19T08:03:00.362Z,17.40
2023-02-19T08:06:03.328Z,20.48
2023-02-19T08:09:08.255Z,19.23
2023-02-19T08:12:31.583Z,19.02
2023-02-19T08:15:34.142Z,21.73
2023-02-19T08:18:36.824Z,17.33
2023-02-19T08:21:39.995Z,17.58
2023-02-19T08:24:43.122Z,19.30
2023-02-19T08:27:48.216Z,19.95
2023-02-19T08:30:51.118Z,21.23
2023-02-19T08:33:56.403Z,19.73
2023-02-19T08:36:58.990Z,18.02
2023-02-19T08:40:01.589Z,22.42
2023-02-19T08:43:05.820Z,20.65
2023-02-19T08:46:11.821Z,20.07
2023-02-19T08:49:17.179Z,22.20
2023-02-19T08:52:19.638Z,18.17
2023-02-19T08:55:22.251Z,17.45
2023-02-19T08:58:27.582Z,18.80
2023-02-19T09:01:30.159Z,18.10
2023-02-19T09:04:37.821Z,18.43
2023-02-19T09:07:40.801Z,17.55
2023-02-19T09:10:43.550Z,18.33
2023-02-19T09:13:46.193Z,18.58
2023-02-19T09:16:48.716Z,16.77
2023-02-19T09:19:51.309Z,18.10
2023-02-19T09:22:58.508Z,18.48
2023-02-19T09:26:06.900Z,18.83
2023-02-19T09:29:09.583Z,17.80
2023-02-19T09:32:15.521Z,18.73
2023-02-19T09:35:18.825Z,18.27
2023-02-19T09:38:21.518Z,17.25
2023-02-19T09:41:26.729Z,21.50
2023-02-19T09:44:37.541Z,16.58
2023-02-19T09:47:40.189Z,18.90
2023-02-19T09:50:50.180Z,17.70
2023-02-19T09:53:54.145Z,18.27
2023-02-19T09:57:00.049Z,17.45
2023-02-19T10:00:27.904Z,16.60
2023-02-19T10:03:43.345Z,18.63
2023-02-19T10:06:46.836Z,17.30
2023-02-19T10:09:57.827Z,17.67
2023-02-19T10:13:42.917Z,18.17
2023-02-19T10:16:48.125Z,17.90
2023-02-19T10:19:52.128Z,18.40
2023-02-19T10:23:13.851Z,18.10
2023-02-19T10:26:16.537Z,19.15
2023-02-19T10:29:20.291Z,15.98
2023-02-19T10:32:25.368Z,19.00
2023-02-19T10:35:30.297Z,16.37
2023-02-19T10:38:39.282Z,14.17
2023-02-19T10:41:44.130Z,14.82
2023-02-19T10:44:53.941Z,16.02
2023-02-19T10:47:57.009Z,14.13
2023-02-19T10:51:06.237Z,15.73
2023-02-19T10:54:34.918Z,13.97
2023-02-19T10:57:38.138Z,15.18
2023-02-19T11:00:40.846Z,13.68
2023-02-19T11:03:43.724Z,16.02
2023-02-19T11:06:46.989Z,16.03
2023-02-19T11:09:53.844Z,16.10
2023-02-19T11:13:03.845Z,16.15
2023-02-19T11:16:06.576Z,16.50
2023-02-19T11:19:31.907Z,15.73
2023-02-19T11:22:38.591Z,16.13
2023-02-19T11:25:56.482Z,15.03
2023-02-19T11:29:01.340Z,15.30
2023-02-19T11:32:26.359Z,12.18
2023-02-19T11:35:31.803Z,14.48
2023-02-19T11:38:36.537Z,13.50
2023-02-19T11:41:57.159Z,13.17
2023-02-19T11:45:14.709Z,15.02
2023-02-19T11:48:38.810Z,15.07
2023-02-19T11:51:56.589Z,16.33
2023-02-19T11:55:26.385Z,13.97
2023-02-19T11:58:54.407Z,15.27
2023-02-19T12:02:27.278Z,15.05
2023-02-19T12:05:41.259Z,13.15
2023-02-19T12:09:09.721Z,15.43
2023-02-19T12:12:18.150Z,16.83
2023-02-19T12:19:14.067Z,15.75
2023-02-19T12:22:22.606Z,14.55
2023-02-19T12:25:42.035Z,16.00
2023-02-19T12:29:18.804Z,14.33
2023-02-19T12:32:53.484Z,14.70
2023-02-19T12:36:21.000Z,14.43
2023-02-19T12:39:41.626Z,13.95
2023-02-19T12:43:09.182Z,17.15
2023-02-19T12:46:48.063Z,15.10
2023-02-19T12:50:11.568Z,14.07
2023-02-19T12:53:26.059Z,14.43
2023-02-19T12:56:52.731Z,13.52
2023-02-19T13:00:07.469Z,14.98
2023-02-19T13:03:37.639Z,14.23
2023-02-19T13:06:51.976Z,13.87
2023-02-19T13:10:07.090Z,12.15
2023-02-19T13:13:28.200Z,12.68
2023-02-19T13:16:35.393Z,13.68
2023-02-19T13:19:41.499Z,14.13
2023-02-19T13:23:07.432Z,13.63
2023-02-19T13:26:19.093Z,12.63
2023-02-19T13:29:43.035Z,11.48
2023-02-19T13:33:09.848Z,10.60
2023-02-19T13:36:27.777Z,11.27
2023-02-19T13:39:34.237Z,10.33
2023-02-19T13:42:37.098Z,8.98
2023-02-19T13:45:47.284Z,8.95
2023-02-19T13:49:10.193Z,7.88
2023-02-19T13:52:34.136Z,4.03
2023-02-19T13:55:42.093Z,6.23
2023-02-19T13:59:01.654Z,6.20
2023-02-19T14:02:04.369Z,6.22
2023-02-19T14:05:11.423Z,6.57
2023-02-19T14:08:33.892Z,6.77
2023-02-19T14:11:42.720Z,4.97
2023-02-19T14:14:50.320Z,5.95
2023-02-19T14:17:55.802Z,5.13
2023-02-19T14:21:17.988Z,5.10
2023-02-19T14:24:20.835Z,5.10
2023-02-19T14:27:23.804Z,5.87
2023-02-19T14:30:27.637Z,6.68
2023-02-19T14:33:45.585Z,5.40
2023-02-19T14:37:01.841Z,5.90
2023-02-19T14:40:05.453Z,5.90
2023-02-19T14:43:14.207Z,7.63
2023-02-19T14:46:39.544Z,6.13
2023-02-19T14:49:57.844Z,5.13
2023-02-19T14:53:04.489Z,4.05
2023-02-19T14:56:17.009Z,5.57
2023-02-19T14:59:26.090Z,2.30
2023-02-19T15:02:31.698Z,2.70
2023-02-19T15:05:40.248Z,2.38
2023-02-19T15:08:48.944Z,8.35
2023-02-19T15:11:51.864Z,2.03
2023-02-19T15:15:01.165Z,2.20
2023-02-19T15:18:06.727Z,2.00
2023-02-19T15:21:23.664Z,2.70
2023-02-19T15:24:28.353Z,1.52
2023-02-19T15:27:34.568Z,1.57
2023-02-19T15:30:39.921Z,2.23
2023-02-19T15:33:50.549Z,1.70
2023-02-19T15:37:05.927Z,1.17
2023-02-19T15:40:14.098Z,2.08
2023-02-19T15:43:40.042Z,1.43
2023-02-19T15:46:44.124Z,1.13
2023-02-19T15:49:54.530Z,1.10
2023-02-19T15:53:15.040Z,1.42
2023-02-19T15:56:28.445Z,2.20
2023-02-19T15:59:56.615Z,1.63
2023-02-19T16:02:59.816Z,2.47
2023-02-19T16:06:14.271Z,2.53
2023-02-19T16:09:23.772Z,1.92
2023-02-19T16:12:29.808Z,2.50
2023-02-19T16:15:33.312Z,2.97
2023-02-19T16:18:44.118Z,2.60
2023-02-19T16:21:46.937Z,4.00
2023-02-19T16:25:13.094Z,1.75
2023-02-19T16:28:24.264Z,1.63
2023-02-19T16:31:27.196Z,1.57
2023-02-19T16:34:47.822Z,2.53
2023-02-19T16:37:58.561Z,1.33
2023-02-19T16:41:07.332Z,2.05
2023-02-19T16:44:22.108Z,1.50
2023-02-19T16:47:33.165Z,2.07
2023-02-19T16:50:36.277Z,1.10
2023-02-19T16:53:39.048Z,1.20
2023-02-19T16:56:41.763Z,1.58
2023-02-19T16:59:48.154Z,1.10
2023-02-19T17:02:53.041Z,1.20
2023-02-19T17:05:56.436Z,1.13
2023-02-19T17:08:59.245Z,1.08
2023-02-19T17:12:02.037Z,0.98
2023-02-19T17:15:05.033Z,1.75
2023-02-19T17:18:12.905Z,1.47
2023-02-19T17:21:25.187Z,1.30
2023-02-19T17:24:30.864Z,1.00
2023-02-19T17:27:35.964Z,1.17
2023-02-19T17:30:40.516Z,1.10
2023-02-19T17:33:43.827Z,1.50
2023-02-19T17:36:48.141Z,1.17
2023-02-19T17:39:50.935Z,1.17
2023-02-19T17:42:53.788Z,1.08
2023-02-19T17:45:56.389Z,1.00
2023-02-19T17:48:59.212Z,0.90
2023-02-19T17:52:04.785Z,0.80
2023-02-19T17:55:11.482Z,1.00
2023-02-19T17:58:14.602Z,1.13
2023-02-19T18:01:17.402Z,1.02
2023-02-19T18:04:20.033Z,1.70
2023-02-19T18:07:22.856Z,1.57
2023-02-19T18:10:25.724Z,2.10
2023-02-19T18:13:28.672Z,1.83
2023-02-19T18:16:31.473Z,2.05
2023-02-19T18:19:34.240Z,1.63
2023-02-19T18:22:39.940Z,0.80
2023-02-19T18:25:43.447Z,1.25
2023-02-19T18:28:47.064Z,1.17
2023-02-19T18:31:58.876Z,1.40
2023-02-19T18:35:02.097Z,1.60
2023-02-19T18:38:05.018Z,1.30
2023-02-19T18:41:12.939Z,1.38
2023-02-19T18:44:23.786Z,1.13
2023-02-19T18:47:27.106Z,0.80
2023-02-19T18:50:29.880Z,0.80
2023-02-19T18:53:32.670Z,1.00
2023-02-19T18:56:47.958Z,1.00
2023-02-19T18:59:50.967Z,0.80
2023-02-19T19:03:00.231Z,0.80
2023-02-19T19:06:03.054Z,0.70
2023-02-19T19:09:06.163Z,0.90
2023-02-19T19:12:08.903Z,0.80
2023-02-19T19:15:11.531Z,0.70
2023-02-19T19:18:14.132Z,0.80
2023-02-19T19:21:17.065Z,1.07
2023-02-19T19:24:20.488Z,0.90
2023-02-19T19:27:23.351Z,0.95
2023-02-19T19:30:26.398Z,1.00
2023-02-19T19:33:29.212Z,1.20
2023-02-19T19:36:36.712Z,1.17
2023-02-19T19:39:39.603Z,1.10
2023-02-19T19:42:44.869Z,1.10
2023-02-19T19:45:50.062Z,1.05
2023-02-19T19:48:59.050Z,1.60
2023-02-19T19:52:01.927Z,1.20
2023-02-19T19:55:08.254Z,0.90
2023-02-19T19:58:11.131Z,0.70
2023-02-19T20:01:15.209Z,1.20
2023-02-19T20:04:21.884Z,1.02
2023-02-19T20:07:24.657Z,1.10
2023-02-19T20:10:27.421Z,1.03
2023-02-19T20:13:34.564Z,1.10
2023-02-19T20:16:37.601Z,0.93
2023-02-19T20:19:40.428Z,0.90
2023-02-19T20:22:43.498Z,1.10
2023-02-19T20:25:48.804Z,1.83
2023-02-19T20:28:52.181Z,1.63
2023-02-19T20:31:55.630Z,1.15
2023-02-19T20:34:58.548Z,1.10
2023-02-19T20:38:01.359Z,1.10
2023-02-19T20:41:06.661Z,1.90
2023-02-19T20:44:09.905Z,1.45
2023-02-19T20:47:12.707Z,1.10
2023-02-19T20:50:17.917Z,1.23
2023-02-19T20:53:20.741Z,1.77
2023-02-19T20:56:26.757Z,1.27
2023-02-19T20:59:34.936Z,0.95
2023-02-19T21:02:37.621Z,1.20
2023-02-19T21:05:43.133Z,1.30
2023-02-19T21:08:50.927Z,1.20
2023-02-19T21:11:53.939Z,1.43
2023-02-19T21:14:56.699Z,1.30
2023-02-19T21:18:01.226Z,1.17
2023-02-19T21:21:04.054Z,1.92
2023-02-19T21:24:09.582Z,1.80
2023-02-19T21:27:15.441Z,1.70
2023-02-19T21:30:18.351Z,1.23
2023-02-19T21:33:21.232Z,1.83
2023-02-19T21:36:23.985Z,1.85
2023-02-19T21:39:27.666Z,2.00
2023-02-19T21:42:30.288Z,1.70
2023-02-19T21:45:43.259Z,2.28
2023-02-19T21:48:49.947Z,1.70
2023-02-19T21:51:52.536Z,1.73
2023-02-19T21:54:58.321Z,1.50
2023-02-19T21:58:00.902Z,1.90
2023-02-19T22:01:03.539Z,1.70
2023-02-19T22:04:07.260Z,1.60
2023-02-19T22:07:10.012Z,1.60
2023-02-19T22:10:16.775Z,1.77
2023-02-19T22:13:19.471Z,2.00
2023-02-19T22:16:22.275Z,1.60
2023-02-19T22:19:24.887Z,1.65
2023-02-19T22:22:27.443Z,1.23
2023-02-19T22:25:29.943Z,1.80
2023-02-19T22:28:32.538Z,1.67
2023-02-19T22:31:38.153Z,1.95
2023-02-19T22:34:42.003Z,1.63
2023-02-19T22:37:44.589Z,1.48
2023-02-19T22:40:47.227Z,1.73
2023-02-19T22:43:50.508Z,1.53
2023-02-19T22:46:55.301Z,1.40
2023-02-19T22:49:57.890Z,1.25
2023-02-19T22:53:00.450Z,1.08
2023-02-19T22:56:03.143Z,1.50
2023-02-19T22:59:05.774Z,1.60
2023-02-19T23:02:08.344Z,1.20
2023-02-19T23:05:10.901Z,1.35
2023-02-19T23:08:16.519Z,1.92
2023-02-19T23:11:24.737Z,1.60
2023-02-19T23:14:27.358Z,1.57
2023-02-19T23:17:30.004Z,1.40
2023-02-19T23:20:32.737Z,1.70
2023-02-19T23:23:35.362Z,1.80
2023-02-19T23:26:49.290Z,1.47
2023-02-19T23:29:51.932Z,1.57
2023-02-19T23:32:54.483Z,1.50
2023-02-19T23:35:57.073Z,1.70
2023-02-19T23:39:03.495Z,1.30
2023-02-19T23:42:06.094Z,1.37
2023-02-19T23:45:09.185Z,1.00
2023-02-19T23:48:11.818Z,1.80
2023-02-19T23:51:14.545Z,1.20
2023-02-19T23:54:17.254Z,1.42
2023-02-19T23:57:20.289Z,1.30
